Overview Statistics Trail Chart Weather Telemetry Raw packets
 

This is the latest recevied weather packets stored in our database for station/object W0AKY-13. If no packets are shown the sender has not sent any weather packets the latest 10 day(s).

<< 62 63 64 65 66 67 68 >>
Time Temp. Humidity Pressure Rain* Wind** Luminosity Snow
1788117214 33.33° C 55% 1011.3 hPa 0 mm - 302 W/m² -
1788116910 33.33° C 55% 1011.3 hPa 0 mm - 386 W/m² -
1788115511 33.33° C 53% 1011.2 hPa 0 mm - 372 W/m² -
1788115205 33.33° C 53% 1011.2 hPa 0 mm - 372 W/m² -
1788114906 33.33° C 53% 1011.2 hPa 0 mm - 447 W/m² -
1788114601 33.33° C 54% 1011.3 hPa 0 mm - 626 W/m² -
1788114297 32.78° C 53% 1011.3 hPa 0 mm - 255 W/m² -
1788113993 32.78° C 54% 1011.6 hPa 0 mm - 275 W/m² -
1788113689 32.78° C 57% 1012 hPa 0 mm - 273 W/m² -
1788113388 32.78° C 56% 1011.8 hPa 0 mm - 205 W/m² -
1788113088 33.33° C 54% 1011.7 hPa 0 mm - 229 W/m² -
1788112787 33.89° C 55% 1011.8 hPa 0 mm - 281 W/m² -
1788112481 33.33° C 56% 1012.1 hPa 0 mm - 679 W/m² -
1788112176 32.22° C 59% 1011.9 hPa 0 mm - 607 W/m² -
1788111872 31.67° C 61% 1011.8 hPa 0 mm - 616 W/m² -
1788111567 31.11° C 60% 1011.8 hPa 0 mm - 198 W/m² -
1788111263 31.67° C 59% 1012 hPa 0 mm - 139 W/m² -
1788110958 31.67° C 59% 1012 hPa 0 mm - 206 W/m² -
1788110655 31.11° C 61% 1012 hPa 0 mm - 255 W/m² -
1788110350 31.67° C 60% 1012 hPa 0 mm - 141 W/m² -
1788110045 31.67° C 59% 1011.9 hPa 0 mm - 167 W/m² -
1788109740 32.22° C 56% 1012 hPa 0 mm - 314 W/m² -
1788109440 31.67° C 57% 1012 hPa 0 mm - 524 W/m² -
1788109138 31.11° C 61% 1011.8 hPa 0 mm - 547 W/m² -
1788108834 31.11° C 59% 1012.1 hPa 0 mm - 395 W/m² -

* Rain latest hour (hover to see other rain measurements)
** Current wind speed in m/s (hover to see current wind gust speed)